Agoura, CA

1:33 AM PDT on September 21, 2014 (GMT -0700)
Paramount Ranch | Change Station
CLOSE
Current Station
Personal Weather Station
Location: Agoura Hills, CA
Elevation: 820 ft
Nearby Weather Stations

Elev 820 ft 34.12 °N, 118.75 °W | Updated 3 minutes ago

Partly Cloudy
Partly Cloudy
56.1 °F
Feels Like 56.1 °F
N
0.0
Wind Variable Wind from ESE

Today
High -- | Low -- °F
--% Chance of Precip.
Yesterday
High -- | Low -- °F
Precip. -- in
6:42 AM 6:53 PM
Waning Crescent, 8% visible
Pressure 29.93 in
Visibility 10.0 miles
Clouds Clear
Dew Point 55 °F
Humidity 95%
Rainfall 0.00 in
Snow Depth Not available.
UV 0 out of 12
Pollen 6.80 out of 12
Ozone Good
PM2.5 Moderate
Flu Activity Not available.
METAR KVNY 210751Z 00000KT 10SM CLR 18/14 A2995 RMK AO2 SLP134 T01830144 402720178

More Conditions Fewer Conditions

Pressure 29.93 in
Visibility 10.0 miles
Clouds Clear
Dew Point 55 °F
Humidity 95%
Rainfall 0.00 in
Snow Depth Not available.
UV 0 out of 12
Pollen 6.80 out of 12
Ozone Good
PM2.5 Moderate
Flu Activity Not available.
METAR KVNY 210751Z 00000KT 10SM CLR 18/14 A2995 RMK AO2 SLP134 T01830144 402720178

More Conditions Fewer Conditions

10-Day Weather Forecast

Almanac

Astronomy

Sep. 21, 2014 Rise Set
Actual Time 6:42 AM PDT 6:53 PM PDT
Civil Twilight 6:17 AM PDT 7:18 PM PDT
Nautical Twilight 5:48 AM PDT 7:47 PM PDT
Astronomical Twilight 5:18 AM PDT 8:16 PM PDT
Moon 4:25 AM PDT 5:28 PM PDT
Length of Visible Light 13h 00m
Length of Day
12h 10m
Tomorrow will be 2m 6s shorter.
Waning Crescent, 8% of the Moon is Illuminated
Today
Waning Crescent
Sep 24
New
Oct 1
First Quarter
Oct 8
Full
Oct 15
Last Quarter

Today's Extremes

State Highs State Lows

Community

WunderPhotos

Upload Photos

1,755,101 photos uploaded!

Nearby

Air Quality

  Air Quality AQ Index Pollutant
Yesterday Moderate
PM2.5
Yesterday Good
OZONE
Current Moderate
PM2.5
Current Good
OZONE
Sunday Good
PM10
Sunday Moderate
OZONE
Sunday Good
CO
Sunday Good
NO2

Snow Depth

Station Depth Elevation
Adin Mountain 0 in 6200 ft
Ebbetts Pass 0 in 8700 ft
Summit Meadow 1 in 9122 ft
Spratt Creek 1 in 6200 ft
Leavitt Meadows 1 in 7200 ft

Earthquake Activity

City Distance Mag. Time & Date
Inyokern, California 141 miles 3.1 5:33 PM PDT
2014-09-19
Aguanga, California 122 miles 2.5 1:38 AM PDT
2014-09-19
Corcoran, California 141 miles 2.9 3:59 PM PDT
2014-09-18
Minimum magnitude displayed is 2.5.

Coastal Water Temperatures

Place Temperature
Santa Monica Pier 69.1 °F
Los Angeles, CA 66.9 °F
La Jolla, CA 72.0 °F

Nearby Weather Stations